createdAt,value
2022-10-26T00:01:13.218Z,3.55
2022-10-26T00:03:41.397Z,2.70
2022-10-26T00:06:11.270Z,3.25
2022-10-26T00:08:38.512Z,3.10
2022-10-26T00:11:06.136Z,2.33
2022-10-26T00:13:33.864Z,2.65
2022-10-26T00:18:27.643Z,3.33
2022-10-26T00:20:54.445Z,3.20
2022-10-26T00:23:21.228Z,2.95
2022-10-26T00:25:55.483Z,2.83
2022-10-26T00:28:22.582Z,2.53
2022-10-26T00:30:49.487Z,2.95
2022-10-26T00:33:16.371Z,3.30
2022-10-26T00:35:46.496Z,2.60
2022-10-26T00:38:13.705Z,2.65
2022-10-26T00:40:40.775Z,2.83
2022-10-26T00:43:35.273Z,2.80
2022-10-26T00:46:04.284Z,2.60
2022-10-26T00:48:38.490Z,3.55
2022-10-26T00:51:17.583Z,2.90
2022-10-26T00:53:45.051Z,3.03
2022-10-26T00:56:12.406Z,3.55
2022-10-26T00:58:40.109Z,2.97
2022-10-26T01:01:06.902Z,3.50
2022-10-26T01:03:35.992Z,2.97
2022-10-26T01:06:05.378Z,2.78
2022-10-26T01:08:32.438Z,3.00
2022-10-26T01:11:01.622Z,3.13
2022-10-26T01:13:33.026Z,2.58
2022-10-26T01:16:25.469Z,3.45
2022-10-26T01:21:21.957Z,3.00
2022-10-26T01:23:48.762Z,3.22
2022-10-26T01:26:49.741Z,2.90
2022-10-26T01:29:35.530Z,2.67
2022-10-26T01:32:11.799Z,2.58
2022-10-26T01:34:53.757Z,2.38
2022-10-26T01:37:26.823Z,2.60
2022-10-26T01:40:21.487Z,3.35
2022-10-26T01:42:52.737Z,2.58
2022-10-26T01:45:20.049Z,2.83
2022-10-26T01:47:48.273Z,2.83
2022-10-26T01:50:16.743Z,2.60
2022-10-26T01:52:43.690Z,2.10
2022-10-26T01:55:32.483Z,2.70
2022-10-26T01:58:23.793Z,2.70
2022-10-26T02:01:08.966Z,2.65
2022-10-26T02:03:58.858Z,2.28
2022-10-26T02:06:52.899Z,2.47
2022-10-26T02:09:38.030Z,2.58
2022-10-26T02:12:20.672Z,2.55
2022-10-26T02:15:11.364Z,2.78
2022-10-26T02:18:00.028Z,2.90
2022-10-26T02:20:38.230Z,2.78
2022-10-26T02:25:40.321Z,2.10
2022-10-26T02:28:12.441Z,2.15
2022-10-26T02:30:41.642Z,2.50
2022-10-26T02:33:10.712Z,2.25
2022-10-26T02:35:39.222Z,2.47
2022-10-26T02:38:09.680Z,2.22
2022-10-26T02:40:37.369Z,2.63
2022-10-26T02:43:13.458Z,2.10
2022-10-26T02:45:46.676Z,2.25
2022-10-26T02:48:14.151Z,2.78
2022-10-26T02:51:01.427Z,2.03
2022-10-26T02:53:33.807Z,1.85
2022-10-26T02:56:06.569Z,1.98
2022-10-26T02:58:39.143Z,2.17
2022-10-26T03:01:06.998Z,2.85
2022-10-26T03:03:34.222Z,2.63
2022-10-26T03:06:01.055Z,2.60
2022-10-26T03:10:55.907Z,2.28
2022-10-26T03:13:22.662Z,2.28
2022-10-26T03:15:49.483Z,2.42
2022-10-26T03:18:16.298Z,2.58
2022-10-26T03:20:46.222Z,1.90
2022-10-26T03:23:13.597Z,2.25
2022-10-26T03:25:40.440Z,2.75
2022-10-26T03:28:07.497Z,2.40
2022-10-26T03:30:34.340Z,2.30
2022-10-26T03:33:01.153Z,2.25
2022-10-26T03:35:28.025Z,2.30
2022-10-26T03:37:55.027Z,2.35
2022-10-26T03:40:21.847Z,2.38
2022-10-26T03:42:48.878Z,2.53
2022-10-26T03:45:16.058Z,2.53
2022-10-26T03:47:45.108Z,2.17
2022-10-26T03:50:12.931Z,2.15
2022-10-26T03:52:40.653Z,2.15
2022-10-26T03:55:08.705Z,2.88
2022-10-26T03:57:39.779Z,2.53
2022-10-26T04:00:07.309Z,2.77
2022-10-26T04:02:34.098Z,2.95
2022-10-26T04:05:00.900Z,2.97
2022-10-26T04:07:27.657Z,2.90
2022-10-26T04:09:54.472Z,2.70
2022-10-26T04:12:21.229Z,2.53
2022-10-26T04:14:48.088Z,2.85
2022-10-26T04:17:14.881Z,2.85
2022-10-26T04:19:41.666Z,2.58
2022-10-26T04:22:08.437Z,2.65
2022-10-26T04:24:35.230Z,2.22
2022-10-26T04:27:02.064Z,2.60
2022-10-26T04:29:28.866Z,2.58
2022-10-26T04:31:55.681Z,2.10
2022-10-26T04:34:26.345Z,2.60
2022-10-26T04:36:56.814Z,2.65
2022-10-26T04:39:23.702Z,2.35
2022-10-26T04:41:50.492Z,2.67
2022-10-26T04:44:17.344Z,3.00
2022-10-26T04:46:44.140Z,2.55
2022-10-26T04:49:11.079Z,2.45
2022-10-26T04:51:37.937Z,2.67
2022-10-26T04:54:04.917Z,2.50
2022-10-26T04:56:31.719Z,2.85
2022-10-26T04:58:58.511Z,2.70
2022-10-26T05:01:25.595Z,2.75
2022-10-26T05:03:53.534Z,2.85
2022-10-26T05:06:21.193Z,2.95
2022-10-26T05:08:48.217Z,3.42
2022-10-26T05:11:15.318Z,3.08
2022-10-26T05:13:42.136Z,3.17
2022-10-26T05:16:08.913Z,3.40
2022-10-26T05:18:35.666Z,3.75
2022-10-26T05:21:02.489Z,2.85
2022-10-26T05:23:29.267Z,3.35
2022-10-26T05:25:56.978Z,3.05
2022-10-26T05:28:23.772Z,2.47
2022-10-26T05:30:50.659Z,3.10
2022-10-26T05:33:17.497Z,3.35
2022-10-26T05:35:44.526Z,4.43
2022-10-26T05:38:14.808Z,4.03
2022-10-26T05:40:49.491Z,4.55
2022-10-26T05:43:17.259Z,5.50
2022-10-26T05:45:44.269Z,4.47
2022-10-26T05:48:11.155Z,3.65
2022-10-26T05:50:38.053Z,4.40
2022-10-26T05:53:05.064Z,3.72
2022-10-26T05:55:32.471Z,3.90
2022-10-26T05:57:59.658Z,3.80
2022-10-26T06:00:28.575Z,3.35
2022-10-26T06:03:13.868Z,5.40
2022-10-26T06:05:55.817Z,4.03
2022-10-26T06:08:25.082Z,3.42
2022-10-26T06:10:52.408Z,2.90
2022-10-26T06:13:19.456Z,3.60
2022-10-26T06:15:55.059Z,3.83
2022-10-26T06:18:52.108Z,3.25
2022-10-26T06:21:50.279Z,3.80
2022-10-26T06:24:41.668Z,3.40
2022-10-26T06:27:30.296Z,2.93
2022-10-26T06:30:12.195Z,3.80
2022-10-26T06:32:46.714Z,3.85
2022-10-26T06:35:25.717Z,3.58
2022-10-26T06:37:54.098Z,3.40
2022-10-26T06:40:22.752Z,3.40
2022-10-26T06:42:49.915Z,2.90
2022-10-26T06:45:17.489Z,3.08
2022-10-26T06:48:01.943Z,3.33
2022-10-26T06:50:29.476Z,3.25
2022-10-26T06:53:33.638Z,2.92
2022-10-26T06:56:02.252Z,2.45
2022-10-26T06:58:33.409Z,2.33
2022-10-26T07:01:00.667Z,2.28
2022-10-26T07:03:27.468Z,2.38
2022-10-26T07:05:54.527Z,1.70
2022-10-26T07:08:21.385Z,1.80
2022-10-26T07:10:48.217Z,2.10
2022-10-26T07:13:15.142Z,1.75
2022-10-26T07:15:42.950Z,1.73
2022-10-26T07:18:10.438Z,2.08
2022-10-26T07:20:39.318Z,2.33
2022-10-26T07:23:08.090Z,1.92
2022-10-26T07:25:35.545Z,2.03
2022-10-26T07:28:02.368Z,2.08
2022-10-26T07:30:30.258Z,1.80
2022-10-26T07:33:15.423Z,1.50
2022-10-26T07:35:42.344Z,1.60
2022-10-26T07:38:09.573Z,1.60
2022-10-26T07:40:38.130Z,2.17
2022-10-26T07:43:05.720Z,1.65
2022-10-26T07:45:32.530Z,1.30
2022-10-26T07:47:59.391Z,1.23
2022-10-26T07:50:26.448Z,1.27
2022-10-26T07:52:53.480Z,1.35
2022-10-26T07:55:20.610Z,0.95
2022-10-26T07:57:49.818Z,1.30
2022-10-26T08:00:21.525Z,1.02
2022-10-26T08:02:48.331Z,0.60
2022-10-26T08:05:15.253Z,0.93
2022-10-26T08:07:43.891Z,0.85
2022-10-26T08:10:12.275Z,1.65
2022-10-26T08:12:39.701Z,0.68
2022-10-26T08:15:07.359Z,0.93
2022-10-26T08:17:34.247Z,1.73
2022-10-26T08:20:01.174Z,1.25
2022-10-26T08:22:31.101Z,1.05
2022-10-26T08:24:58.231Z,0.75
2022-10-26T08:27:25.300Z,0.90
2022-10-26T08:29:52.176Z,0.77
2022-10-26T08:32:18.970Z,0.80
2022-10-26T08:34:45.830Z,0.93
2022-10-26T08:37:12.630Z,1.45
2022-10-26T08:39:39.438Z,0.98
2022-10-26T08:42:19.817Z,1.30
2022-10-26T08:44:48.435Z,0.93
2022-10-26T08:50:18.529Z,1.02
2022-10-26T08:53:03.814Z,0.75
2022-10-26T08:58:15.342Z,0.80
2022-10-26T09:00:43.371Z,0.90
2022-10-26T09:03:19.999Z,1.00
2022-10-26T09:05:46.793Z,0.80
2022-10-26T09:08:44.866Z,0.90
2022-10-26T09:11:30.537Z,0.90
2022-10-26T09:14:03.269Z,0.80
2022-10-26T09:16:45.303Z,1.23
2022-10-26T09:22:09.786Z,1.10
2022-10-26T09:24:45.574Z,0.95
2022-10-26T09:27:30.473Z,1.05
2022-10-26T09:30:03.764Z,0.73
2022-10-26T09:32:44.539Z,1.02
2022-10-26T09:35:27.013Z,1.23
2022-10-26T09:37:58.342Z,1.88
2022-10-26T09:40:34.363Z,1.52
2022-10-26T09:43:07.332Z,1.10
2022-10-26T09:45:41.159Z,1.23
2022-10-26T09:48:20.281Z,1.67
2022-10-26T09:50:49.539Z,1.10
2022-10-26T09:53:16.680Z,1.30
2022-10-26T09:55:49.610Z,1.25
2022-10-26T09:58:23.322Z,0.73
2022-10-26T10:00:51.778Z,0.90
2022-10-26T10:03:32.848Z,1.80
2022-10-26T10:06:19.070Z,0.80
2022-10-26T10:09:22.242Z,0.90
2022-10-26T10:11:55.365Z,0.93
2022-10-26T10:14:26.819Z,0.68
2022-10-26T10:17:01.369Z,2.08
2022-10-26T10:19:32.407Z,1.60
2022-10-26T10:22:01.306Z,2.15
2022-10-26T10:24:33.849Z,2.15
2022-10-26T10:27:17.713Z,2.15
2022-10-26T10:30:09.092Z,2.38
2022-10-26T10:32:38.993Z,2.80
2022-10-26T10:35:24.876Z,1.73
2022-10-26T10:37:52.634Z,1.80
2022-10-26T10:40:27.896Z,2.00
2022-10-26T10:43:22.297Z,1.80
2022-10-26T10:45:53.722Z,2.92
2022-10-26T10:48:28.649Z,4.22
2022-10-26T10:51:02.950Z,2.15
2022-10-26T10:53:48.426Z,1.58
2022-10-26T10:56:36.780Z,1.85
2022-10-26T10:59:25.330Z,1.42
2022-10-26T11:02:10.349Z,1.60
2022-10-26T11:05:29.466Z,1.40
2022-10-26T11:08:07.537Z,1.10
2022-10-26T11:10:42.106Z,1.52
2022-10-26T11:13:31.712Z,1.10
2022-10-26T11:16:05.701Z,1.38
2022-10-26T11:18:41.459Z,1.88
2022-10-26T11:21:21.454Z,1.02
2022-10-26T11:23:54.544Z,1.30
2022-10-26T11:26:31.687Z,1.35
2022-10-26T11:29:35.188Z,1.75
2022-10-26T11:32:24.430Z,1.77
2022-10-26T11:35:05.408Z,1.20
2022-10-26T11:40:19.490Z,1.23
2022-10-26T11:43:11.400Z,1.35
2022-10-26T11:45:47.888Z,1.23
2022-10-26T11:48:17.415Z,1.13
2022-10-26T11:50:49.765Z,1.50
2022-10-26T11:53:31.892Z,1.58
2022-10-26T11:55:59.445Z,2.38
2022-10-26T11:58:27.746Z,1.50
2022-10-26T12:01:09.907Z,1.00
2022-10-26T12:03:57.892Z,2.10
2022-10-26T12:06:31.714Z,2.50
2022-10-26T12:09:23.258Z,2.15
2022-10-26T12:11:53.122Z,1.17
2022-10-26T12:14:52.765Z,2.00
2022-10-26T12:17:24.827Z,1.45
2022-10-26T12:20:01.146Z,1.10
2022-10-26T12:22:48.873Z,1.55
2022-10-26T12:25:15.877Z,2.17
2022-10-26T12:27:42.736Z,1.23
2022-10-26T12:30:18.599Z,1.00
2022-10-26T12:32:45.383Z,1.40
2022-10-26T12:35:40.706Z,2.03
2022-10-26T12:38:29.084Z,1.30
2022-10-26T12:41:09.871Z,1.60
2022-10-26T12:43:41.294Z,1.23
2022-10-26T12:46:14.126Z,1.02
2022-10-26T12:48:42.058Z,1.50
2022-10-26T12:51:26.985Z,1.40
2022-10-26T12:54:02.703Z,1.77
2022-10-26T12:57:06.327Z,1.27
2022-10-26T13:00:01.670Z,1.42
2022-10-26T13:02:34.881Z,1.13
2022-10-26T13:05:19.887Z,1.17
2022-10-26T13:07:47.163Z,1.10
2022-10-26T13:10:13.957Z,0.90
2022-10-26T13:13:02.169Z,2.10
2022-10-26T13:15:31.821Z,0.98
2022-10-26T13:18:09.276Z,1.45
2022-10-26T13:20:38.012Z,1.67
2022-10-26T13:23:20.936Z,1.83
2022-10-26T13:26:06.871Z,1.65
2022-10-26T13:28:39.772Z,1.52
2022-10-26T13:31:26.245Z,1.98
2022-10-26T13:34:16.887Z,1.05
2022-10-26T13:36:55.679Z,1.42
2022-10-26T13:39:27.665Z,1.05
2022-10-26T13:41:56.288Z,1.38
2022-10-26T13:44:33.199Z,2.00
2022-10-26T13:47:04.547Z,1.48
2022-10-26T13:49:40.361Z,1.80
2022-10-26T13:52:34.172Z,1.52
2022-10-26T13:55:26.534Z,1.65
2022-10-26T13:58:14.270Z,1.52
2022-10-26T14:00:59.688Z,1.73
2022-10-26T14:03:27.625Z,1.77
2022-10-26T14:05:54.761Z,1.40
2022-10-26T14:08:22.324Z,1.20
2022-10-26T14:10:59.852Z,2.33
2022-10-26T14:13:28.910Z,1.65
2022-10-26T14:15:57.758Z,1.90
2022-10-26T14:18:27.659Z,1.63
2022-10-26T14:21:03.851Z,1.67
2022-10-26T14:23:51.860Z,1.10
2022-10-26T14:26:51.191Z,1.83
2022-10-26T14:29:21.304Z,2.05
2022-10-26T14:31:49.993Z,1.75
2022-10-26T14:34:17.847Z,1.30
2022-10-26T14:36:58.847Z,1.42
2022-10-26T14:39:43.824Z,1.50
2022-10-26T14:42:32.999Z,1.20
2022-10-26T14:45:01.718Z,1.10
2022-10-26T14:47:31.763Z,2.08
2022-10-26T14:52:34.590Z,1.63
2022-10-26T14:55:04.968Z,1.58
2022-10-26T14:57:37.755Z,1.48
2022-10-26T15:00:17.286Z,1.40
2022-10-26T15:02:46.267Z,1.55
2022-10-26T15:05:39.447Z,1.30
2022-10-26T15:08:56.081Z,2.25
2022-10-26T15:11:23.840Z,1.52
2022-10-26T15:13:50.849Z,1.50
2022-10-26T15:16:22.068Z,2.22
2022-10-26T15:18:52.242Z,1.63
2022-10-26T15:21:25.006Z,1.38
2022-10-26T15:23:53.679Z,1.83
2022-10-26T15:26:20.933Z,1.38
2022-10-26T15:28:50.642Z,1.60
2022-10-26T15:31:17.432Z,1.60
2022-10-26T15:34:04.675Z,2.58
2022-10-26T15:36:32.853Z,1.27
2022-10-26T15:38:59.993Z,2.15
2022-10-26T15:41:28.865Z,1.90
2022-10-26T15:44:10.046Z,1.83
2022-10-26T15:46:40.663Z,2.67
2022-10-26T15:49:14.542Z,2.30
2022-10-26T15:51:41.374Z,2.80
2022-10-26T15:56:47.791Z,2.85
2022-10-26T15:59:19.320Z,4.45
2022-10-26T16:01:46.291Z,10.27
2022-10-26T16:04:13.477Z,11.27
2022-10-26T16:06:41.884Z,7.60
2022-10-26T16:09:14.042Z,5.85
2022-10-26T16:11:41.673Z,5.43
2022-10-26T16:14:10.450Z,4.88
2022-10-26T16:16:37.338Z,5.18
2022-10-26T16:19:29.254Z,5.28
2022-10-26T16:21:51.872Z,28.98
2022-10-26T16:24:18.809Z,40.50
2022-10-26T16:26:46.434Z,35.45
2022-10-26T16:29:13.253Z,27.38
2022-10-26T16:31:40.069Z,20.52
2022-10-26T16:34:06.901Z,15.15
2022-10-26T16:36:34.619Z,15.57
2022-10-26T16:41:29.667Z,12.02
2022-10-26T16:43:56.657Z,7.15
2022-10-26T16:46:23.879Z,7.30
2022-10-26T16:48:51.511Z,5.68
2022-10-26T16:51:19.611Z,5.32
2022-10-26T16:53:47.831Z,5.53
2022-10-26T16:56:18.330Z,5.50
2022-10-26T16:58:45.638Z,4.63
2022-10-26T17:01:13.842Z,4.63
2022-10-26T17:03:40.716Z,5.85
2022-10-26T17:06:08.179Z,4.00
2022-10-26T17:08:36.554Z,5.22
2022-10-26T17:11:09.951Z,4.80
2022-10-26T17:13:37.629Z,4.25
2022-10-26T17:16:06.891Z,5.10
2022-10-26T17:18:34.041Z,5.50
2022-10-26T17:21:00.835Z,6.13
2022-10-26T17:23:27.699Z,6.25
2022-10-26T17:25:54.536Z,6.18
2022-10-26T17:28:21.545Z,7.22
2022-10-26T17:30:48.415Z,7.25
2022-10-26T17:33:15.243Z,7.53
2022-10-26T17:35:42.038Z,7.90
2022-10-26T17:38:08.926Z,7.43
2022-10-26T17:40:35.718Z,6.75
2022-10-26T17:43:02.584Z,6.55
2022-10-26T17:45:29.456Z,7.05
2022-10-26T17:47:56.257Z,5.35
2022-10-26T17:50:23.050Z,9.40
2022-10-26T17:52:49.888Z,9.65
2022-10-26T17:55:16.761Z,9.10
2022-10-26T17:57:43.595Z,7.93
2022-10-26T18:00:11.437Z,6.82
2022-10-26T18:02:38.822Z,7.07
2022-10-26T18:05:07.610Z,6.93
2022-10-26T18:07:35.168Z,9.88
2022-10-26T18:10:13.731Z,9.57
2022-10-26T18:12:49.094Z,10.55
2022-10-26T18:15:16.259Z,10.00
2022-10-26T18:17:45.140Z,11.70
2022-10-26T18:20:12.036Z,11.70
2022-10-26T18:22:38.810Z,12.80
2022-10-26T18:25:05.918Z,23.65
2022-10-26T18:27:32.690Z,27.40
2022-10-26T18:29:59.469Z,20.60
2022-10-26T18:32:26.271Z,11.13
2022-10-26T18:34:53.052Z,9.40
2022-10-26T18:37:19.867Z,8.82
2022-10-26T18:39:46.679Z,9.57
2022-10-26T18:42:13.504Z,7.28
2022-10-26T18:44:40.280Z,7.22
2022-10-26T18:47:07.159Z,9.05
2022-10-26T18:49:34.056Z,7.15
2022-10-26T18:52:00.959Z,9.07
2022-10-26T18:54:29.578Z,5.60
2022-10-26T18:56:57.908Z,6.18
2022-10-26T18:59:24.671Z,5.72
2022-10-26T19:01:51.680Z,6.93
2022-10-26T19:04:19.026Z,8.63
2022-10-26T19:06:47.806Z,9.73
2022-10-26T19:09:16.572Z,8.73
2022-10-26T19:11:43.505Z,7.20
2022-10-26T19:14:11.419Z,6.68
2022-10-26T19:16:47.564Z,6.60
2022-10-26T19:19:15.639Z,6.88
2022-10-26T19:21:42.483Z,7.35
2022-10-26T19:24:20.716Z,6.10
2022-10-26T19:26:48.771Z,9.25
2022-10-26T19:29:16.965Z,8.10
2022-10-26T19:31:45.357Z,7.93
2022-10-26T19:34:13.358Z,8.30
2022-10-26T19:36:44.805Z,8.55
2022-10-26T19:39:16.010Z,8.68
2022-10-26T19:41:43.344Z,8.20
2022-10-26T19:44:11.618Z,7.20
2022-10-26T19:46:39.632Z,7.40
2022-10-26T19:49:06.616Z,7.00
2022-10-26T19:51:33.613Z,7.22
2022-10-26T19:54:03.941Z,7.20
2022-10-26T19:56:32.447Z,5.15
2022-10-26T19:58:59.449Z,5.07
2022-10-26T20:01:26.556Z,4.90
2022-10-26T20:03:53.467Z,5.63
2022-10-26T20:06:20.412Z,5.68
2022-10-26T20:08:48.959Z,4.30
2022-10-26T20:11:17.505Z,4.93
2022-10-26T20:13:45.883Z,5.32
2022-10-26T20:16:13.690Z,5.50
2022-10-26T20:18:44.159Z,6.03
2022-10-26T20:21:15.565Z,5.68
2022-10-26T20:23:43.509Z,5.60
2022-10-26T20:26:18.100Z,5.80
2022-10-26T20:28:48.296Z,6.10
2022-10-26T20:31:15.335Z,5.90
2022-10-26T20:33:42.193Z,6.13
2022-10-26T20:36:09.261Z,6.20
2022-10-26T20:38:36.431Z,5.95
2022-10-26T20:41:06.369Z,6.03
2022-10-26T20:43:39.775Z,5.32
2022-10-26T20:46:11.752Z,4.75
2022-10-26T20:51:14.932Z,5.35
2022-10-26T20:53:54.234Z,4.85
2022-10-26T20:56:25.738Z,5.03
2022-10-26T20:58:57.841Z,5.32
2022-10-26T21:01:35.244Z,6.03
2022-10-26T21:04:03.603Z,4.32
2022-10-26T21:06:39.772Z,5.10
2022-10-26T21:09:07.994Z,5.75
2022-10-26T21:11:34.935Z,5.07
2022-10-26T21:14:03.384Z,6.00
2022-10-26T21:16:30.296Z,5.47
2022-10-26T21:18:58.569Z,4.82
2022-10-26T21:21:25.412Z,4.95
2022-10-26T21:23:52.543Z,5.00
2022-10-26T21:26:19.392Z,5.53
2022-10-26T21:28:46.262Z,4.50
2022-10-26T21:31:18.537Z,4.93
2022-10-26T21:33:46.845Z,5.05
2022-10-26T21:36:14.515Z,4.60
2022-10-26T21:38:43.248Z,5.22
2022-10-26T21:41:15.536Z,5.22
2022-10-26T21:43:44.674Z,5.22
2022-10-26T21:46:11.910Z,4.70
2022-10-26T21:48:41.154Z,4.55
2022-10-26T21:51:16.308Z,6.18
2022-10-26T21:56:20.094Z,5.10
2022-10-26T21:58:47.491Z,5.35
2022-10-26T22:01:20.020Z,4.60
2022-10-26T22:03:47.350Z,5.25
2022-10-26T22:06:16.146Z,4.95
2022-10-26T22:08:43.414Z,4.63
2022-10-26T22:11:16.040Z,4.72
2022-10-26T22:13:44.340Z,4.82
2022-10-26T22:16:13.840Z,4.88
2022-10-26T22:18:43.226Z,4.55
2022-10-26T22:21:10.673Z,4.40
2022-10-26T22:23:39.099Z,5.80
2022-10-26T22:26:10.224Z,4.53
2022-10-26T22:28:41.587Z,5.33
2022-10-26T22:34:03.299Z,5.45
2022-10-26T22:36:33.780Z,6.22
2022-10-26T22:39:00.813Z,7.90
2022-10-26T22:41:27.791Z,8.07
2022-10-26T22:43:54.701Z,6.68
2022-10-26T22:46:23.937Z,5.72
2022-10-26T22:48:59.289Z,6.05
2022-10-26T22:51:29.468Z,4.75
2022-10-26T22:53:59.100Z,5.53
2022-10-26T22:58:54.591Z,5.13
2022-10-26T23:01:23.898Z,5.20
2022-10-26T23:03:52.018Z,4.70
2022-10-26T23:06:19.911Z,4.47
2022-10-26T23:08:46.770Z,5.07
2022-10-26T23:11:16.666Z,4.63
2022-10-26T23:13:44.339Z,4.82
2022-10-26T23:16:17.955Z,4.80
2022-10-26T23:18:45.057Z,5.32
2022-10-26T23:21:13.534Z,5.63
2022-10-26T23:23:41.056Z,5.45
2022-10-26T23:26:12.147Z,5.35
2022-10-26T23:28:39.718Z,5.43
2022-10-26T23:31:07.270Z,5.72
2022-10-26T23:33:34.229Z,5.43
2022-10-26T23:36:01.651Z,6.13
2022-10-26T23:38:28.533Z,5.28
2022-10-26T23:40:57.513Z,4.90
2022-10-26T23:43:25.840Z,5.63
2022-10-26T23:45:53.021Z,6.32
2022-10-26T23:48:20.133Z,5.10
2022-10-26T23:50:48.845Z,5.10
2022-10-26T23:53:17.896Z,5.05
2022-10-26T23:55:45.626Z,4.47
2022-10-26T23:58:13.368Z,4.85
